createdAt,value
2022-07-25T00:00:27.751Z,100.00
2022-07-25T00:02:55.554Z,100.00
2022-07-25T00:05:27.999Z,100.00
2022-07-25T00:07:55.828Z,100.00
2022-07-25T00:10:25.267Z,100.00
2022-07-25T00:12:57.176Z,100.00
2022-07-25T00:15:25.049Z,100.00
2022-07-25T00:17:52.978Z,100.00
2022-07-25T00:20:24.916Z,100.00
2022-07-25T00:22:52.708Z,100.00
2022-07-25T00:25:20.629Z,100.00
2022-07-25T00:27:53.835Z,100.00
2022-07-25T00:30:21.896Z,100.00
2022-07-25T00:32:49.753Z,100.00
2022-07-25T00:35:21.923Z,100.00
2022-07-25T00:37:49.826Z,100.00
2022-07-25T00:40:17.725Z,100.00
2022-07-25T00:42:51.059Z,100.00
2022-07-25T00:45:18.882Z,100.00
2022-07-25T00:47:46.674Z,100.00
2022-07-25T00:50:18.526Z,100.00
2022-07-25T00:52:49.028Z,100.00
2022-07-25T00:55:17.391Z,100.00
2022-07-25T00:57:47.323Z,100.00
2022-07-25T01:00:19.519Z,100.00
2022-07-25T01:02:47.455Z,100.00
2022-07-25T01:05:22.732Z,100.00
2022-07-25T01:07:53.703Z,100.00
2022-07-25T01:10:21.728Z,100.00
2022-07-25T01:12:52.856Z,100.00
2022-07-25T01:15:25.773Z,100.00
2022-07-25T01:17:55.951Z,100.00
2022-07-25T01:20:29.427Z,100.00
2022-07-25T01:23:01.750Z,100.00
2022-07-25T01:25:29.707Z,100.00
2022-07-25T01:27:57.957Z,100.00
2022-07-25T01:30:30.026Z,100.00
2022-07-25T01:32:57.807Z,100.00
2022-07-25T01:35:26.985Z,100.00
2022-07-25T01:37:58.825Z,100.00
2022-07-25T01:40:26.807Z,100.00
2022-07-25T01:42:54.714Z,100.00
2022-07-25T01:45:26.763Z,100.00
2022-07-25T01:47:54.627Z,100.00
2022-07-25T01:50:22.595Z,100.00
2022-07-25T01:52:55.961Z,100.00
2022-07-25T01:55:23.879Z,100.00
2022-07-25T01:57:53.325Z,100.00
2022-07-25T02:00:23.298Z,100.00
2022-07-25T02:03:11.487Z,99.73
2022-07-25T02:05:43.878Z,99.39
2022-07-25T02:08:13.085Z,96.08
2022-07-25T02:10:41.130Z,94.99
2022-07-25T02:13:12.953Z,98.25
2022-07-25T02:15:40.756Z,95.61
2022-07-25T02:18:08.590Z,93.32
2022-07-25T02:20:40.375Z,94.04
2022-07-25T02:23:08.456Z,92.96
2022-07-25T02:25:37.767Z,92.73
2022-07-25T02:28:08.109Z,94.19
2022-07-25T02:30:38.957Z,94.19
2022-07-25T02:33:10.939Z,94.19
2022-07-25T02:35:38.739Z,94.90
2022-07-25T02:38:06.559Z,92.71
2022-07-25T02:40:39.963Z,95.21
2022-07-25T02:43:07.763Z,96.47
2022-07-25T02:45:35.606Z,97.27
2022-07-25T02:48:07.840Z,95.49
2022-07-25T02:50:36.042Z,95.17
2022-07-25T02:53:04.066Z,96.93
2022-07-25T02:55:36.186Z,97.91
2022-07-25T02:58:05.376Z,93.44
2022-07-25T03:00:33.254Z,93.28
2022-07-25T03:03:05.108Z,91.32
2022-07-25T03:05:33.025Z,91.54
2022-07-25T03:08:00.904Z,92.87
2022-07-25T03:10:33.172Z,93.64
2022-07-25T03:13:01.023Z,93.63
2022-07-25T03:15:30.272Z,92.24
2022-07-25T03:18:02.202Z,88.41
2022-07-25T03:20:30.011Z,87.60
2022-07-25T03:22:57.866Z,88.61
2022-07-25T03:25:29.849Z,87.33
2022-07-25T03:27:57.678Z,86.77
2022-07-25T03:30:25.549Z,85.50
2022-07-25T03:32:58.931Z,85.58
2022-07-25T03:35:27.028Z,87.69
2022-07-25T03:37:54.835Z,87.52
2022-07-25T03:40:26.924Z,85.16
2022-07-25T03:42:54.669Z,85.89
2022-07-25T03:45:22.477Z,86.50
2022-07-25T03:47:54.334Z,85.60
2022-07-25T03:50:23.560Z,84.11
2022-07-25T03:52:51.435Z,81.78
2022-07-25T03:55:23.260Z,79.52
2022-07-25T03:57:51.988Z,79.74
2022-07-25T04:00:19.891Z,80.31
2022-07-25T04:02:52.046Z,79.38
2022-07-25T04:05:20.015Z,79.45
2022-07-25T04:07:49.263Z,80.08
2022-07-25T04:10:21.247Z,81.52
2022-07-25T04:12:49.054Z,82.62
2022-07-25T04:15:16.964Z,80.99
2022-07-25T04:17:48.821Z,83.51
2022-07-25T04:20:17.001Z,84.00
2022-07-25T04:22:46.945Z,81.93
2022-07-25T04:25:20.635Z,80.16
2022-07-25T04:27:50.619Z,80.41
2022-07-25T04:30:24.690Z,80.60
2022-07-25T04:32:56.956Z,79.11
2022-07-25T04:35:24.829Z,78.21
2022-07-25T04:37:52.629Z,78.23
2022-07-25T04:40:25.884Z,78.39
2022-07-25T04:42:55.850Z,78.08
2022-07-25T04:45:24.045Z,78.10
2022-07-25T04:47:53.887Z,78.17
2022-07-25T04:50:24.964Z,79.04
2022-07-25T04:52:53.053Z,80.80
2022-07-25T04:55:26.559Z,79.67
2022-07-25T04:57:54.528Z,78.44
2022-07-25T05:00:23.835Z,75.78
2022-07-25T05:02:54.524Z,73.86
2022-07-25T05:05:24.517Z,72.35
2022-07-25T05:07:58.470Z,71.99
2022-07-25T05:10:29.999Z,73.22
2022-07-25T05:13:02.143Z,71.61
2022-07-25T05:15:29.927Z,70.78
2022-07-25T05:17:57.748Z,71.41
2022-07-25T05:20:27.933Z,72.05
2022-07-25T05:22:55.817Z,73.35
2022-07-25T05:25:23.723Z,72.81
2022-07-25T05:27:59.356Z,72.52
2022-07-25T05:30:27.366Z,73.30
2022-07-25T05:32:57.480Z,74.77
2022-07-25T05:35:27.202Z,73.77
2022-07-25T05:37:55.304Z,74.42
2022-07-25T05:40:25.406Z,73.20
2022-07-25T05:43:00.957Z,72.87
2022-07-25T05:45:31.164Z,70.01
2022-07-25T05:48:00.829Z,69.37
2022-07-25T05:50:28.625Z,68.88
2022-07-25T05:52:56.825Z,68.67
2022-07-25T05:55:24.716Z,68.28
2022-07-25T05:57:53.932Z,65.87
2022-07-25T06:00:24.292Z,68.16
2022-07-25T06:02:54.391Z,70.13
2022-07-25T06:05:22.314Z,71.96
2022-07-25T06:07:52.296Z,74.24
2022-07-25T06:10:23.513Z,74.23
2022-07-25T06:12:51.401Z,73.84
2022-07-25T06:15:26.923Z,72.55
2022-07-25T06:17:57.414Z,72.97
2022-07-25T06:20:29.267Z,74.65
2022-07-25T06:22:57.235Z,74.18
2022-07-25T06:25:27.225Z,73.38
2022-07-25T06:27:57.300Z,73.97
2022-07-25T06:30:26.573Z,74.14
2022-07-25T06:32:57.283Z,73.07
2022-07-25T06:35:27.258Z,70.96
2022-07-25T06:37:55.270Z,69.71
2022-07-25T06:40:25.063Z,70.49
2022-07-25T06:42:55.104Z,71.04
2022-07-25T06:45:25.195Z,70.96
2022-07-25T06:47:54.700Z,70.93
2022-07-25T06:50:22.657Z,71.19
2022-07-25T06:52:50.589Z,68.49
2022-07-25T06:55:20.449Z,67.28
2022-07-25T06:57:50.427Z,67.50
2022-07-25T07:00:18.814Z,66.93
2022-07-25T07:02:58.285Z,65.55
2022-07-25T07:05:29.365Z,65.59
2022-07-25T07:08:02.052Z,66.97
2022-07-25T07:10:30.526Z,67.74
2022-07-25T07:13:10.674Z,67.79
2022-07-25T07:15:40.473Z,66.62
2022-07-25T07:18:08.685Z,65.82
2022-07-25T07:20:38.282Z,64.49
2022-07-25T07:23:06.196Z,63.47
2022-07-25T07:25:36.455Z,63.33
2022-07-25T07:28:04.753Z,63.01
2022-07-25T07:30:58.676Z,60.11
2022-07-25T07:33:21.231Z,59.66
2022-07-25T07:35:50.469Z,60.70
2022-07-25T07:38:18.409Z,60.95
2022-07-25T07:40:46.463Z,60.16
2022-07-25T07:43:14.345Z,60.58
2022-07-25T07:45:43.140Z,61.65
2022-07-25T07:48:11.284Z,60.39
2022-07-25T07:50:39.150Z,62.97
2022-07-25T07:53:08.327Z,61.24
2022-07-25T07:55:50.724Z,60.58
2022-07-25T07:58:20.329Z,58.62
2022-07-25T08:00:54.029Z,56.85
2022-07-25T08:03:22.647Z,59.28
2022-07-25T08:05:51.907Z,58.85
2022-07-25T08:08:21.477Z,60.06
2022-07-25T08:10:51.877Z,59.96
2022-07-25T08:13:27.719Z,59.38
2022-07-25T08:15:59.473Z,59.31
2022-07-25T08:18:31.753Z,58.72
2022-07-25T08:21:00.375Z,58.95
2022-07-25T08:23:31.195Z,57.85
2022-07-25T08:26:01.323Z,58.12
2022-07-25T08:28:31.314Z,56.84
2022-07-25T08:31:01.599Z,57.16
2022-07-25T08:33:31.488Z,55.93
2022-07-25T08:36:00.054Z,53.40
2022-07-25T08:38:31.095Z,54.12
2022-07-25T08:41:01.659Z,53.76
2022-07-25T08:43:33.920Z,52.62
2022-07-25T08:46:05.124Z,50.45
2022-07-25T08:48:33.118Z,49.66
2022-07-25T08:51:04.177Z,50.80
2022-07-25T08:53:35.119Z,50.94
2022-07-25T08:56:13.374Z,54.42
2022-07-25T08:58:46.188Z,55.88
2022-07-25T09:01:16.326Z,55.77
2022-07-25T09:03:44.603Z,57.66
2022-07-25T09:06:24.274Z,59.50
2022-07-25T09:08:54.998Z,59.36
2022-07-25T09:11:34.671Z,58.79
2022-07-25T09:14:06.867Z,59.12
2022-07-25T09:16:41.647Z,59.54
2022-07-25T09:19:11.915Z,59.38
2022-07-25T09:21:44.255Z,59.94
2022-07-25T09:24:17.164Z,59.36
2022-07-25T09:26:49.831Z,59.23
2022-07-25T09:29:19.943Z,59.03
2022-07-25T09:31:50.180Z,59.40
2022-07-25T09:34:30.977Z,58.36
2022-07-25T09:37:01.063Z,58.61
2022-07-25T09:39:45.789Z,58.62
2022-07-25T09:42:22.010Z,59.46
2022-07-25T09:45:07.486Z,60.34
2022-07-25T09:47:37.764Z,61.04
2022-07-25T09:50:07.052Z,62.37
2022-07-25T09:52:39.965Z,61.65
2022-07-25T09:55:11.037Z,60.91
2022-07-25T09:57:43.477Z,60.79
2022-07-25T10:00:17.475Z,61.65
2022-07-25T10:02:53.547Z,59.07
2022-07-25T10:05:38.407Z,57.85
2022-07-25T10:08:11.447Z,55.94
2022-07-25T10:10:44.017Z,56.25
2022-07-25T10:13:19.768Z,56.73
2022-07-25T10:15:49.951Z,55.58
2022-07-25T10:18:25.448Z,54.76
2022-07-25T10:20:56.313Z,54.33
2022-07-25T10:23:30.000Z,53.09
2022-07-25T10:26:05.152Z,54.07
2022-07-25T10:28:42.530Z,54.60
2022-07-25T10:31:23.086Z,55.15
2022-07-25T10:33:57.019Z,57.97
2022-07-25T10:36:26.526Z,58.17
2022-07-25T10:39:01.481Z,57.84
2022-07-25T10:41:30.998Z,58.14
2022-07-25T10:44:03.229Z,58.86
2022-07-25T10:46:32.693Z,58.66
2022-07-25T10:49:09.581Z,59.73
2022-07-25T10:51:41.941Z,61.29
2022-07-25T10:54:17.410Z,60.90
2022-07-25T10:56:58.590Z,59.77
2022-07-25T10:59:29.895Z,60.48
2022-07-25T11:01:58.275Z,61.16
2022-07-25T11:04:26.274Z,60.04
2022-07-25T11:06:54.512Z,59.77
2022-07-25T11:09:27.538Z,59.79
2022-07-25T11:11:58.979Z,59.68
2022-07-25T11:14:32.910Z,58.45
2022-07-25T11:17:13.616Z,57.74
2022-07-25T11:19:42.717Z,56.81
2022-07-25T11:22:13.444Z,55.60
2022-07-25T11:24:45.146Z,56.89
2022-07-25T11:27:23.286Z,57.33
2022-07-25T11:29:51.252Z,57.54
2022-07-25T11:32:19.357Z,58.65
2022-07-25T11:34:49.405Z,59.23
2022-07-25T11:37:19.086Z,60.52
2022-07-25T11:39:48.882Z,62.03
2022-07-25T11:42:19.361Z,60.61
2022-07-25T11:44:49.247Z,59.94
2022-07-25T11:47:28.490Z,61.29
2022-07-25T11:49:59.981Z,57.23
2022-07-25T11:52:30.969Z,58.49
2022-07-25T11:55:02.710Z,59.29
2022-07-25T11:57:34.587Z,59.75
2022-07-25T12:00:05.708Z,61.21
2022-07-25T12:02:36.805Z,62.29
2022-07-25T12:05:08.058Z,60.86
2022-07-25T12:07:38.290Z,61.22
2022-07-25T12:10:07.798Z,62.80
2022-07-25T12:12:49.863Z,63.87
2022-07-25T12:15:20.307Z,63.89
2022-07-25T12:17:49.038Z,64.80
2022-07-25T12:20:23.189Z,67.64
2022-07-25T12:22:53.764Z,69.60
2022-07-25T12:25:30.724Z,69.84
2022-07-25T12:28:01.593Z,70.67
2022-07-25T12:30:32.796Z,73.46
2022-07-25T12:33:01.944Z,77.99
2022-07-25T12:35:30.335Z,80.05
2022-07-25T12:37:58.384Z,79.52
2022-07-25T12:40:26.715Z,78.41
2022-07-25T12:42:57.366Z,77.42
2022-07-25T12:45:29.752Z,76.15
2022-07-25T12:47:59.692Z,74.55
2022-07-25T12:50:27.658Z,71.14
2022-07-25T12:52:57.500Z,67.75
2022-07-25T12:55:25.350Z,69.64
2022-07-25T12:57:55.368Z,70.12
2022-07-25T13:00:26.558Z,69.53
2022-07-25T13:02:56.917Z,70.60
2022-07-25T13:05:28.821Z,72.08
2022-07-25T13:07:56.694Z,70.51
2022-07-25T13:10:24.599Z,70.85
2022-07-25T13:12:56.689Z,69.21
2022-07-25T13:15:28.259Z,67.03
2022-07-25T13:17:59.860Z,66.06
2022-07-25T13:20:29.632Z,64.58
2022-07-25T13:22:57.547Z,62.87
2022-07-25T13:25:25.502Z,61.65
2022-07-25T13:27:55.567Z,59.55
2022-07-25T13:30:23.531Z,57.95
2022-07-25T13:32:52.948Z,57.31
2022-07-25T13:35:31.530Z,59.10
2022-07-25T13:38:03.796Z,59.18
2022-07-25T13:40:33.509Z,59.23
2022-07-25T13:43:01.354Z,59.47
2022-07-25T13:45:29.439Z,59.66
2022-07-25T13:48:26.803Z,60.56
2022-07-25T13:50:47.606Z,61.63
2022-07-25T13:53:17.762Z,63.25
2022-07-25T13:55:45.566Z,62.44
2022-07-25T13:58:15.877Z,64.48
2022-07-25T14:00:46.017Z,63.59
2022-07-25T14:03:13.898Z,63.26
2022-07-25T14:05:41.883Z,64.04
2022-07-25T14:08:11.134Z,64.41
2022-07-25T14:10:38.987Z,65.53
2022-07-25T14:13:09.011Z,67.00
2022-07-25T14:15:38.402Z,67.72
2022-07-25T14:18:06.646Z,68.97
2022-07-25T14:20:36.658Z,69.31
2022-07-25T14:23:08.471Z,69.06
2022-07-25T14:25:38.959Z,69.20
2022-07-25T14:28:06.807Z,69.33
2022-07-25T14:30:38.733Z,70.80
2022-07-25T14:33:06.566Z,71.04
2022-07-25T14:35:35.572Z,71.47
2022-07-25T14:38:06.981Z,72.39
2022-07-25T14:40:35.521Z,73.22
2022-07-25T14:43:04.813Z,72.41
2022-07-25T14:45:37.103Z,72.52
2022-07-25T14:48:06.685Z,72.44
2022-07-25T14:50:34.731Z,69.52
2022-07-25T14:53:06.781Z,67.62
2022-07-25T14:55:35.304Z,64.36
2022-07-25T14:58:04.737Z,62.76
2022-07-25T15:00:35.700Z,62.46
2022-07-25T15:03:03.570Z,63.71
2022-07-25T15:05:31.459Z,64.68
2022-07-25T15:08:03.745Z,64.40
2022-07-25T15:10:31.583Z,63.91
2022-07-25T15:13:28.105Z,62.93
2022-07-25T15:15:52.744Z,61.29
2022-07-25T15:18:20.729Z,60.24
2022-07-25T15:20:48.722Z,60.67
2022-07-25T15:23:20.699Z,60.89
2022-07-25T15:26:04.464Z,60.14
2022-07-25T15:28:36.482Z,60.57
2022-07-25T15:31:07.061Z,60.52
2022-07-25T15:33:35.464Z,62.17
2022-07-25T15:36:03.778Z,64.86
2022-07-25T15:38:33.807Z,66.96
2022-07-25T15:41:01.668Z,65.99
2022-07-25T15:43:31.717Z,66.14
2022-07-25T15:45:59.793Z,65.98
2022-07-25T15:48:29.470Z,65.18
2022-07-25T15:51:00.782Z,63.54
2022-07-25T15:53:32.600Z,63.74
2022-07-25T15:56:00.483Z,64.06
2022-07-25T15:58:28.394Z,63.46
2022-07-25T16:01:00.562Z,64.27
2022-07-25T16:03:30.059Z,64.84
2022-07-25T16:05:58.976Z,64.26
2022-07-25T16:08:30.823Z,66.28
2022-07-25T16:10:58.756Z,67.03
2022-07-25T16:13:26.567Z,67.84
2022-07-25T16:15:58.866Z,69.93
2022-07-25T16:18:27.047Z,68.90
2022-07-25T16:20:56.289Z,70.22
2022-07-25T16:23:28.281Z,71.30
2022-07-25T16:25:56.100Z,71.61
2022-07-25T16:28:23.962Z,71.96
2022-07-25T16:30:52.438Z,72.13
2022-07-25T16:33:20.351Z,73.89
2022-07-25T16:35:48.383Z,74.28
2022-07-25T16:38:18.081Z,73.04
2022-07-25T16:40:45.928Z,74.15
2022-07-25T16:43:13.759Z,74.40
2022-07-25T16:45:45.719Z,72.95
2022-07-25T16:48:13.595Z,73.51
2022-07-25T16:50:41.564Z,73.76
2022-07-25T16:53:09.762Z,71.57
2022-07-25T16:55:39.878Z,69.51
2022-07-25T16:58:07.694Z,69.26
2022-07-25T17:00:35.640Z,68.68
2022-07-25T17:03:03.524Z,68.38
2022-07-25T17:05:31.471Z,68.34
2022-07-25T17:07:59.934Z,66.99
2022-07-25T17:10:28.161Z,67.70
2022-07-25T17:12:57.562Z,67.09
2022-07-25T17:15:25.794Z,66.75
2022-07-25T17:17:53.678Z,66.61
2022-07-25T17:20:21.472Z,66.83
2022-07-25T17:22:49.581Z,67.81
2022-07-25T17:25:17.805Z,68.89
2022-07-25T17:27:45.720Z,69.24
2022-07-25T17:30:15.367Z,69.75
2022-07-25T17:32:43.785Z,69.83
2022-07-25T17:35:11.656Z,70.32
2022-07-25T17:37:43.998Z,71.06
2022-07-25T17:40:12.411Z,72.90
2022-07-25T17:42:44.948Z,73.52
2022-07-25T17:45:18.802Z,73.94
2022-07-25T17:47:46.736Z,75.72
2022-07-25T17:50:16.884Z,75.88
2022-07-25T17:52:45.119Z,76.59
2022-07-25T17:55:13.582Z,76.74
2022-07-25T17:57:42.361Z,77.87
2022-07-25T18:00:11.695Z,77.67
2022-07-25T18:02:41.033Z,77.91
2022-07-25T18:05:09.853Z,78.24
2022-07-25T18:07:45.203Z,79.03
2022-07-25T18:10:13.402Z,79.66
2022-07-25T18:12:43.246Z,79.10
2022-07-25T18:15:14.470Z,80.14
2022-07-25T18:17:44.278Z,79.99
2022-07-25T18:20:13.811Z,80.92
2022-07-25T18:22:42.263Z,81.12
2022-07-25T18:25:12.807Z,82.11
2022-07-25T18:27:41.994Z,82.68
2022-07-25T18:30:13.498Z,82.19
2022-07-25T18:32:45.691Z,83.19
2022-07-25T18:35:14.347Z,84.07
2022-07-25T18:37:45.341Z,84.42
2022-07-25T18:40:14.031Z,82.94
2022-07-25T18:42:41.874Z,83.25
2022-07-25T18:45:13.047Z,84.94
2022-07-25T18:47:44.558Z,83.77
2022-07-25T18:50:12.614Z,84.25
2022-07-25T18:52:42.856Z,86.17
2022-07-25T18:55:15.057Z,87.08
2022-07-25T18:57:42.903Z,87.09
2022-07-25T19:00:11.958Z,88.63
2022-07-25T19:02:40.031Z,90.42
2022-07-25T19:05:10.296Z,90.49
2022-07-25T19:07:40.151Z,92.42
2022-07-25T19:10:11.108Z,93.77
2022-07-25T19:12:39.119Z,92.60
2022-07-25T19:15:08.323Z,92.33
2022-07-25T19:17:37.108Z,91.01
2022-07-25T19:20:06.007Z,91.36
2022-07-25T19:22:35.285Z,92.45
2022-07-25T19:25:08.393Z,94.32
2022-07-25T19:27:36.719Z,96.11
2022-07-25T19:30:08.270Z,98.30
2022-07-25T19:32:36.526Z,97.67
2022-07-25T19:35:05.306Z,96.96
2022-07-25T19:37:33.591Z,97.57
2022-07-25T19:40:03.199Z,97.67
2022-07-25T19:42:33.230Z,97.36
2022-07-25T19:45:03.258Z,99.18
2022-07-25T19:47:31.081Z,95.65
2022-07-25T19:50:00.867Z,96.25
2022-07-25T19:52:28.817Z,95.19
2022-07-25T19:54:57.040Z,97.14
2022-07-25T19:57:26.649Z,96.13
2022-07-25T19:59:54.682Z,96.58
2022-07-25T20:02:22.610Z,96.57
2022-07-25T20:04:52.557Z,95.33
2022-07-25T20:07:24.694Z,96.49
2022-07-25T20:09:53.096Z,94.40
2022-07-25T20:12:22.922Z,95.52
2022-07-25T20:14:52.446Z,95.54
2022-07-25T20:17:20.524Z,95.54
2022-07-25T20:19:50.294Z,93.80
2022-07-25T20:22:20.302Z,94.76
2022-07-25T20:24:48.147Z,91.89
2022-07-25T20:27:17.868Z,93.16
2022-07-25T20:29:45.826Z,93.56
2022-07-25T20:32:15.013Z,92.37
2022-07-25T20:34:44.778Z,93.59
2022-07-25T20:37:14.835Z,94.40
2022-07-25T20:39:42.758Z,95.08
2022-07-25T20:42:12.841Z,95.33
2022-07-25T20:44:41.262Z,92.59
2022-07-25T20:47:09.127Z,93.73
2022-07-25T20:49:40.481Z,94.50
2022-07-25T20:52:13.384Z,95.05
2022-07-25T20:54:45.034Z,94.14
2022-07-25T20:57:17.190Z,95.80
2022-07-25T20:59:45.019Z,97.89
2022-07-25T21:02:14.989Z,97.35
2022-07-25T21:04:48.464Z,99.23
2022-07-25T21:07:16.822Z,97.51
2022-07-25T21:09:45.005Z,100.00
2022-07-25T21:12:15.146Z,99.07
2022-07-25T21:14:42.988Z,98.37
2022-07-25T21:17:10.900Z,97.32
2022-07-25T21:19:43.099Z,98.26
2022-07-25T21:22:12.765Z,100.00
2022-07-25T21:24:40.829Z,100.00
2022-07-25T21:27:12.984Z,100.00
2022-07-25T21:29:40.799Z,97.86
2022-07-25T21:32:09.187Z,96.01
2022-07-25T21:34:41.125Z,96.24
2022-07-25T21:37:09.500Z,96.67
2022-07-25T21:39:39.388Z,94.76
2022-07-25T21:42:13.211Z,96.44
2022-07-25T21:44:41.511Z,94.52
2022-07-25T21:47:10.212Z,92.91
2022-07-25T21:49:59.673Z,94.32
2022-07-25T21:52:34.822Z,95.18
2022-07-25T21:55:09.080Z,94.26
2022-07-25T21:57:36.928Z,92.16
2022-07-25T22:00:08.243Z,91.81
2022-07-25T22:02:36.195Z,91.30
2022-07-25T22:05:04.365Z,89.22
2022-07-25T22:07:34.345Z,89.81
2022-07-25T22:10:04.205Z,88.71
2022-07-25T22:12:33.457Z,90.86
2022-07-25T22:15:04.316Z,90.21
2022-07-25T22:17:49.092Z,91.10
2022-07-25T22:20:19.675Z,90.25
2022-07-25T22:22:49.664Z,90.30
2022-07-25T22:25:18.014Z,88.63
2022-07-25T22:27:49.708Z,89.20
2022-07-25T22:30:19.811Z,89.22
2022-07-25T22:32:48.321Z,90.67
2022-07-25T22:35:19.618Z,91.67
2022-07-25T22:37:49.458Z,91.93
2022-07-25T22:40:17.278Z,91.63
2022-07-25T22:42:45.269Z,91.12
2022-07-25T22:45:16.797Z,90.74
2022-07-25T22:47:44.653Z,89.54
2022-07-25T22:50:12.513Z,91.52
2022-07-25T22:52:44.405Z,92.33
2022-07-25T22:55:12.367Z,93.08
2022-07-25T22:57:40.186Z,90.01
2022-07-25T23:00:12.899Z,91.32
2022-07-25T23:02:42.490Z,90.09
2022-07-25T23:05:12.860Z,93.41
2022-07-25T23:07:42.672Z,92.38
2022-07-25T23:10:11.515Z,93.62
2022-07-25T23:12:41.826Z,94.80
2022-07-25T23:15:12.224Z,96.72
2022-07-25T23:17:40.137Z,97.68
2022-07-25T23:20:12.700Z,95.61
2022-07-25T23:22:42.423Z,95.75
2022-07-25T23:25:15.379Z,97.06
2022-07-25T23:27:43.304Z,99.62
2022-07-25T23:30:12.019Z,100.00
2022-07-25T23:32:42.189Z,100.00
2022-07-25T23:35:13.740Z,100.00
2022-07-25T23:37:41.835Z,100.00
2022-07-25T23:40:13.084Z,100.00
2022-07-25T23:42:42.996Z,100.00
2022-07-25T23:45:11.709Z,100.00
2022-07-25T23:47:44.137Z,100.00
2022-07-25T23:50:15.578Z,100.00
2022-07-25T23:52:43.910Z,100.00
2022-07-25T23:55:14.135Z,100.00
2022-07-25T23:57:44.305Z,100.00
